Time;durP1;ratioP1;P1;durP2;ratioP2;P2;SDS_P1;SDS_P2;PMS_P1;PMS_P2;Temp;Humidity;BMP_temperature;BMP_pressure;BME280_temperature;BME280_humidity;BME280_pressure;Samples;Min_cycle;Max_cycle;Signal;HPM_P1;HPM_P2
2023/06/29 00:01:03;;;;;;;33.90;25.75;;;18.50;99.90;;;;;;4942967;28;20049;-56
2023/06/29 00:03:31;;;;;;;33.08;24.05;;;18.40;99.90;;;;;;4947009;28;20065;-57
2023/06/29 00:05:58;;;;;;;38.50;25.95;;;18.50;99.90;;;;;;4946212;28;20094;-56
2023/06/29 00:08:24;;;;;;;33.55;25.55;;;18.40;99.90;;;;;;4945327;28;20042;-54
2023/06/29 00:10:55;;;;;;;34.97;25.77;;;18.40;99.90;;;;;;4943883;28;20070;-53
2023/06/29 00:13:21;;;;;;;34.72;25.55;;;18.40;99.90;;;;;;4943330;28;20056;-54
2023/06/29 00:15:48;;;;;;;30.83;25.65;;;18.40;99.90;;;;;;4942484;28;20043;-55
2023/06/29 00:18:14;;;;;;;34.50;25.10;;;18.40;99.90;;;;;;4944016;28;20051;-55
2023/06/29 00:20:41;;;;;;;32.80;25.98;;;18.40;99.90;;;;;;4943797;28;20594;-57
2023/06/29 00:23:07;;;;;;;31.42;24.63;;;18.40;99.90;;;;;;4942241;29;20097;-54
2023/06/29 00:25:34;;;;;;;35.13;25.73;;;18.40;99.90;;;;;;4942850;28;20310;-54
2023/06/29 00:27:59;;;;;;;36.97;26.55;;;18.40;99.90;;;;;;4943581;28;20055;-54
2023/06/29 00:30:25;;;;;;;34.70;25.65;;;18.40;99.90;;;;;;4942461;28;20229;-54
2023/06/29 00:32:51;;;;;;;33.70;25.20;;;18.40;99.90;;;;;;4942964;28;20410;-58
2023/06/29 00:35:17;;;;;;;34.83;25.60;;;18.30;99.90;;;;;;4944119;28;20074;-55
2023/06/29 00:37:42;;;;;;;35.25;25.25;;;18.30;99.90;;;;;;4943743;28;20078;-54
2023/06/29 00:40:09;;;;;;;34.75;25.67;;;18.30;99.90;;;;;;4943167;28;20104;-53
2023/06/29 00:42:35;;;;;;;33.30;26.52;;;18.30;99.90;;;;;;4942774;28;20051;-56
2023/06/29 00:45:02;;;;;;;34.67;25.50;;;18.40;99.90;;;;;;4942488;28;20085;-54
2023/06/29 00:47:29;;;;;;;37.38;25.52;;;18.40;99.90;;;;;;4943378;28;20406;-56
2023/06/29 00:49:55;;;;;;;33.90;26.92;;;18.30;99.90;;;;;;4942834;28;20359;-53
2023/06/29 00:52:22;;;;;;;33.58;25.95;;;18.40;99.90;;;;;;4943254;28;20047;-57
2023/06/29 00:54:48;;;;;;;39.50;26.63;;;18.30;99.90;;;;;;4943477;28;20062;-56
2023/06/29 00:57:13;;;;;;;35.80;26.05;;;18.30;99.90;;;;;;4942653;28;20055;-55
2023/06/29 00:59:39;;;;;;;39.58;27.42;;;18.30;99.90;;;;;;4942329;28;20047;-54
2023/06/29 01:02:05;;;;;;;38.63;27.40;;;18.30;99.90;;;;;;4943393;28;20307;-52
2023/06/29 01:04:33;;;;;;;39.90;28.77;;;18.30;99.90;;;;;;4943070;28;20047;-55
2023/06/29 01:07:15;;;;;;;37.65;27.42;;;18.30;99.90;;;;;;4941029;28;20051;-56
2023/06/29 01:09:44;;;;;;;36.95;27.55;;;18.30;99.90;;;;;;4942654;28;20047;-54
2023/06/29 01:12:12;;;;;;;34.30;26.80;;;18.30;99.90;;;;;;4941907;28;20501;-55
2023/06/29 01:14:39;;;;;;;38.88;27.67;;;18.20;99.90;;;;;;4942603;28;20102;-57
2023/06/29 01:17:06;;;;;;;40.45;28.50;;;18.30;99.90;;;;;;4944576;28;20051;-52
2023/06/29 01:19:33;;;;;;;39.22;28.55;;;18.30;99.90;;;;;;4961428;28;20427;-53
2023/06/29 01:22:12;;;;;;;37.08;27.27;;;18.30;99.90;;;;;;4962881;28;20043;-53
2023/06/29 01:24:39;;;;;;;39.47;28.13;;;18.30;99.90;;;;;;4962871;28;20046;-54
2023/06/29 01:27:08;;;;;;;39.10;28.23;;;18.30;99.90;;;;;;4965343;28;20058;-56
2023/06/29 01:29:34;;;;;;;36.33;26.83;;;18.30;99.90;;;;;;4965170;28;20184;-54
2023/06/29 01:32:03;;;;;;;40.20;28.00;;;18.30;99.90;;;;;;4966173;28;20126;-53
2023/06/29 01:34:31;;;;;;;37.85;27.55;;;18.20;99.90;;;;;;4965358;28;20074;-53
2023/06/29 01:37:12;;;;;;;37.35;27.23;;;18.20;99.90;;;;;;4965462;28;20034;-52
2023/06/29 01:40:03;;;;;;;35.35;27.67;;;18.20;99.90;;;;;;4965959;28;20125;-55
2023/06/29 01:42:32;;;;;;;33.25;26.65;;;18.30;99.90;;;;;;4964567;28;20126;-53
2023/06/29 01:45:03;;;;;;;35.83;27.00;;;18.20;99.90;;;;;;4965098;28;20457;-55
2023/06/29 01:47:30;;;;;;;40.42;28.77;;;18.20;99.90;;;;;;4964063;28;20046;-53
2023/06/29 01:49:56;;;;;;;38.25;27.92;;;18.20;99.90;;;;;;4965802;28;20169;-54
2023/06/29 01:52:22;;;;;;;38.67;29.52;;;18.20;99.90;;;;;;4965756;28;20129;-55
2023/06/29 01:54:48;;;;;;;38.83;29.75;;;18.20;99.90;;;;;;4965391;28;20561;-55
2023/06/29 01:57:14;;;;;;;37.58;28.95;;;18.20;99.90;;;;;;4965238;28;20545;-55
2023/06/29 01:59:40;;;;;;;41.67;29.33;;;18.20;99.90;;;;;;4965048;28;20039;-54
2023/06/29 02:02:06;;;;;;;39.13;28.75;;;18.20;99.90;;;;;;4964636;28;20286;-58
2023/06/29 02:04:33;;;;;;;36.20;28.80;;;18.10;99.90;;;;;;4965437;28;20035;-54
2023/06/29 02:06:59;;;;;;;37.53;29.20;;;18.20;99.90;;;;;;4965563;28;20057;-54
2023/06/29 02:09:26;;;;;;;36.40;28.23;;;18.30;99.90;;;;;;4964990;28;20279;-52
2023/06/29 02:11:51;;;;;;;40.63;29.95;;;18.10;99.90;;;;;;4964778;28;20054;-55
2023/06/29 02:14:17;;;;;;;37.22;29.40;;;18.10;99.90;;;;;;4963401;28;20043;-53
2023/06/29 02:16:47;;;;;;;38.38;29.17;;;18.20;99.90;;;;;;4964946;28;20848;-54
2023/06/29 02:19:13;;;;;;;37.92;29.52;;;18.10;99.90;;;;;;4964510;28;20082;-54
2023/06/29 02:21:39;;;;;;;42.47;30.60;;;18.10;99.90;;;;;;4965268;28;20093;-54
2023/06/29 02:24:04;;;;;;;41.72;30.50;;;18.10;99.90;;;;;;4965220;28;20487;-55
2023/06/29 02:26:30;;;;;;;43.15;30.83;;;18.10;99.90;;;;;;4964681;28;20094;-54
2023/06/29 02:28:56;;;;;;;39.95;30.63;;;18.10;99.90;;;;;;4963241;28;20039;-51
2023/06/29 02:31:21;;;;;;;39.05;29.38;;;18.10;99.90;;;;;;4964369;28;20121;-55
2023/06/29 02:33:49;;;;;;;40.83;30.75;;;18.10;99.90;;;;;;4963924;28;20047;-54
2023/06/29 02:36:15;;;;;;;45.00;31.42;;;18.10;99.90;;;;;;4963789;28;20082;-54
2023/06/29 02:38:41;;;;;;;38.60;29.60;;;18.10;99.90;;;;;;4964840;28;20066;-54
2023/06/29 02:41:07;;;;;;;39.25;29.80;;;18.10;99.90;;;;;;4965020;28;20051;-54
2023/06/29 02:43:33;;;;;;;42.20;29.70;;;18.10;99.90;;;;;;4964553;28;20050;-57
2023/06/29 02:45:59;;;;;;;36.97;28.77;;;18.00;99.90;;;;;;4964041;28;20058;-55
2023/06/29 02:48:25;;;;;;;38.53;29.25;;;18.10;99.90;;;;;;4964911;28;20039;-55
2023/06/29 02:50:50;;;;;;;35.90;28.83;;;18.10;99.90;;;;;;4964692;28;20426;-53
2023/06/29 02:53:16;;;;;;;41.28;29.20;;;18.00;99.90;;;;;;4962811;28;20183;-55
2023/06/29 02:55:43;;;;;;;42.40;29.95;;;18.10;99.90;;;;;;4964246;28;20130;-53
2023/06/29 02:58:08;;;;;;;38.92;29.23;;;18.00;99.90;;;;;;4964334;28;20134;-55
2023/06/29 03:00:34;;;;;;;43.95;29.20;;;18.10;99.90;;;;;;4962700;28;20134;-52
2023/06/29 03:02:59;;;;;;;36.00;29.13;;;18.10;99.90;;;;;;4964470;28;20105;-54
2023/06/29 03:05:25;;;;;;;37.70;28.45;;;18.10;99.90;;;;;;4964684;28;20682;-50
2023/06/29 03:07:51;;;;;;;38.83;28.60;;;18.10;99.90;;;;;;4964493;28;20073;-55
2023/06/29 03:10:16;;;;;;;39.35;29.25;;;18.00;99.90;;;;;;4963689;28;20105;-55
2023/06/29 03:12:42;;;;;;;39.97;29.67;;;18.10;99.90;;;;;;4963902;28;20113;-54
2023/06/29 03:15:09;;;;;;;39.78;28.08;;;18.00;99.90;;;;;;4963860;28;20320;-55
2023/06/29 03:17:35;;;;;;;39.70;28.70;;;18.10;99.90;;;;;;4963492;28;20090;-56
2023/06/29 03:20:00;;;;;;;40.38;29.77;;;18.00;99.90;;;;;;4964012;28;20156;-55
2023/06/29 03:22:26;;;;;;;34.53;27.25;;;18.10;99.90;;;;;;4963103;28;20047;-55
2023/06/29 03:24:52;;;;;;;35.72;26.50;;;18.10;99.90;;;;;;4963605;28;20046;-54
2023/06/29 03:27:19;;;;;;;36.63;28.02;;;18.10;99.90;;;;;;4963444;28;20387;-54
2023/06/29 03:29:45;;;;;;;38.53;28.05;;;18.10;99.90;;;;;;4962907;28;20050;-52
2023/06/29 03:32:10;;;;;;;36.75;27.88;;;18.10;99.90;;;;;;4963718;28;20050;-54
2023/06/29 03:34:36;;;;;;;38.25;28.30;;;18.10;99.90;;;;;;4962899;28;20494;-54
2023/06/29 03:37:01;;;;;;;34.85;26.58;;;18.10;99.90;;;;;;4962067;28;20050;-54
2023/06/29 03:39:27;;;;;;;33.88;26.27;;;18.10;99.90;;;;;;4964070;28;20101;-56
2023/06/29 03:41:53;;;;;;;37.75;26.75;;;18.10;99.90;;;;;;4963776;28;20505;-54
2023/06/29 03:44:18;;;;;;;38.60;27.25;;;18.10;99.90;;;;;;4962560;28;20069;-56
2023/06/29 03:46:44;;;;;;;37.15;26.30;;;18.20;99.90;;;;;;4963390;28;20042;-55
2023/06/29 03:49:09;;;;;;;35.50;27.13;;;18.20;99.90;;;;;;4962974;28;20071;-55
2023/06/29 03:51:35;;;;;;;34.42;25.77;;;18.20;99.90;;;;;;4962836;28;20251;-55
2023/06/29 03:54:00;;;;;;;33.92;26.48;;;18.20;99.90;;;;;;4963398;28;20038;-56
2023/06/29 03:56:26;;;;;;;34.95;25.77;;;18.10;99.90;;;;;;4963711;28;20046;-56
2023/06/29 03:58:52;;;;;;;35.10;24.98;;;18.20;99.90;;;;;;4963314;28;20039;-54
2023/06/29 04:01:18;;;;;;;34.58;25.38;;;18.20;99.90;;;;;;4961971;28;20043;-53
2023/06/29 04:03:43;;;;;;;34.15;25.90;;;18.20;99.90;;;;;;4963114;28;20105;-55
2023/06/29 04:06:09;;;;;;;32.85;25.15;;;18.20;99.90;;;;;;4961698;28;20050;-55
2023/06/29 04:08:34;;;;;;;35.15;25.05;;;18.20;99.90;;;;;;4962691;28;20462;-56
2023/06/29 04:11:00;;;;;;;33.35;25.45;;;18.20;99.90;;;;;;4962898;28;20482;-55
2023/06/29 04:13:26;;;;;;;33.20;24.67;;;18.20;99.90;;;;;;4961615;28;20078;-54
2023/06/29 04:15:53;;;;;;;33.33;24.60;;;18.20;99.90;;;;;;4962740;28;20116;-55
2023/06/29 04:18:19;;;;;;;33.42;24.77;;;18.20;99.90;;;;;;4962450;28;20055;-56
2023/06/29 04:20:44;;;;;;;32.20;24.15;;;18.20;99.90;;;;;;4962948;28;20042;-56
2023/06/29 04:23:14;;;;;;;31.15;26.58;;;18.20;99.90;;;;;;4962793;28;20387;-55
2023/06/29 04:25:42;;;;;;;31.77;24.80;;;18.30;99.90;;;;;;4960880;28;20050;-55
2023/06/29 04:28:09;;;;;;;35.30;24.95;;;18.30;99.90;;;;;;4962723;28;20405;-55
2023/06/29 04:30:36;;;;;;;36.88;25.73;;;18.30;99.90;;;;;;4961891;28;20061;-54
2023/06/29 04:33:09;;;;;;;33.28;24.15;;;18.40;99.90;;;;;;4962100;28;20137;-55
2023/06/29 04:35:39;;;;;;;34.78;25.00;;;18.40;99.90;;;;;;4962430;28;20086;-53
2023/06/29 04:38:05;;;;;;;35.45;25.35;;;18.40;99.90;;;;;;4962769;28;20043;-55
2023/06/29 04:40:31;;;;;;;33.70;25.02;;;18.40;99.90;;;;;;4962560;28;20055;-55
2023/06/29 04:42:57;;;;;;;33.72;24.67;;;18.50;99.90;;;;;;4963046;28;20066;-54
2023/06/29 04:45:24;;;;;;;35.63;25.15;;;18.40;99.90;;;;;;4961693;28;20231;-55
2023/06/29 04:47:50;;;;;;;34.03;25.17;;;18.50;99.90;;;;;;4962601;28;20474;-55
2023/06/29 04:50:15;;;;;;;34.67;25.98;;;18.50;99.90;;;;;;4962085;28;20290;-55
2023/06/29 04:52:43;;;;;;;33.13;24.48;;;18.50;99.90;;;;;;4962429;28;20051;-54
2023/06/29 04:55:10;;;;;;;30.60;24.88;;;18.50;99.90;;;;;;4962217;28;20042;-53
2023/06/29 04:57:36;;;;;;;31.33;24.98;;;18.50;99.90;;;;;;4960553;28;20219;-55
2023/06/29 05:00:06;;;;;;;33.10;24.58;;;18.50;99.90;;;;;;4961707;28;20046;-55
2023/06/29 05:02:32;;;;;;;34.58;26.00;;;18.50;99.90;;;;;;4962973;28;20055;-54
2023/06/29 05:04:57;;;;;;;31.05;25.38;;;18.50;99.90;;;;;;4961371;28;20435;-55
2023/06/29 05:07:23;;;;;;;32.80;24.92;;;18.50;99.90;;;;;;4962373;28;20054;-56
2023/06/29 05:09:49;;;;;;;33.95;25.95;;;18.50;99.90;;;;;;4962189;28;20382;-55
2023/06/29 05:12:14;;;;;;;34.90;25.52;;;18.60;99.90;;;;;;4962055;28;20054;-57
2023/06/29 05:14:40;;;;;;;32.35;25.58;;;18.60;99.90;;;;;;4960972;28;20077;-53
2023/06/29 05:17:06;;;;;;;33.45;26.15;;;18.60;99.90;;;;;;4962099;28;20047;-56
2023/06/29 05:19:32;;;;;;;34.63;26.20;;;18.60;99.90;;;;;;4962527;28;20050;-53
2023/06/29 05:21:58;;;;;;;32.80;26.70;;;18.70;99.90;;;;;;4961558;28;20047;-56
2023/06/29 05:24:25;;;;;;;35.90;26.55;;;18.70;99.90;;;;;;4960767;28;20039;-55
2023/06/29 05:26:50;;;;;;;34.72;26.10;;;18.70;99.90;;;;;;4961981;28;20127;-55
2023/06/29 05:29:16;;;;;;;34.67;25.98;;;18.80;99.90;;;;;;4961501;28;20280;-56
2023/06/29 05:31:41;;;;;;;33.45;25.73;;;18.80;99.90;;;;;;4961562;28;20406;-56
2023/06/29 05:34:07;;;;;;;37.65;25.80;;;18.80;99.90;;;;;;4962000;28;20043;-55
2023/06/29 05:36:33;;;;;;;33.70;25.85;;;18.90;99.90;;;;;;4962362;28;20031;-54
2023/06/29 05:38:58;;;;;;;34.28;25.50;;;18.90;99.90;;;;;;4961209;28;20461;-53
2023/06/29 05:41:24;;;;;;;41.58;27.08;;;19.00;99.90;;;;;;4962422;28;20039;-56
2023/06/29 05:43:49;;;;;;;34.40;25.83;;;19.00;99.90;;;;;;4961631;28;20066;-56
2023/06/29 05:46:15;;;;;;;33.80;24.98;;;19.10;99.90;;;;;;4962458;28;20039;-57
2023/06/29 05:48:41;;;;;;;29.90;24.60;;;19.10;99.90;;;;;;4961219;28;20039;-54
2023/06/29 05:51:06;;;;;;;30.42;22.83;;;19.20;99.90;;;;;;4961435;28;20295;-55
2023/06/29 05:53:32;;;;;;;34.38;24.70;;;19.20;99.90;;;;;;4961947;28;20474;-56
2023/06/29 05:55:58;;;;;;;36.15;24.77;;;19.30;99.90;;;;;;4961302;28;20035;-56
2023/06/29 05:58:24;;;;;;;29.33;24.48;;;19.30;99.90;;;;;;4962149;28;20050;-56
2023/06/29 06:00:51;;;;;;;27.88;24.00;;;19.30;99.90;;;;;;4961328;28;20039;-54
2023/06/29 06:03:16;;;;;;;35.13;24.25;;;19.30;99.90;;;;;;4961684;28;20110;-56
2023/06/29 06:05:45;;;;;;;31.20;24.83;;;19.40;99.90;;;;;;4960942;28;20043;-56
2023/06/29 06:08:10;;;;;;;33.85;23.17;;;19.50;99.90;;;;;;4961587;28;20038;-55
2023/06/29 06:10:36;;;;;;;31.70;24.08;;;19.60;99.90;;;;;;4961122;28;20053;-55
2023/06/29 06:13:02;;;;;;;32.03;23.75;;;19.60;99.90;;;;;;4963969;28;20102;-54
2023/06/29 06:15:28;;;;;;;31.17;22.98;;;19.70;99.90;;;;;;4964281;28;20458;-56
2023/06/29 06:17:54;;;;;;;31.25;22.90;;;19.70;99.90;;;;;;4965418;28;20105;-56
2023/06/29 06:20:19;;;;;;;31.98;23.13;;;19.80;99.90;;;;;;4965022;28;20478;-55
2023/06/29 06:22:45;;;;;;;31.80;24.33;;;19.80;99.90;;;;;;4964205;28;20046;-52
2023/06/29 06:25:11;;;;;;;29.90;23.42;;;19.90;99.90;;;;;;4965005;28;20106;-55
2023/06/29 06:27:37;;;;;;;30.55;23.30;;;19.90;99.90;;;;;;4963674;28;20153;-53
2023/06/29 06:30:04;;;;;;;31.90;23.25;;;19.90;99.90;;;;;;4963789;28;20393;-56
2023/06/29 06:32:30;;;;;;;30.60;23.55;;;19.90;99.90;;;;;;4965145;28;20101;-55
2023/06/29 06:34:55;;;;;;;32.05;24.60;;;20.00;99.90;;;;;;4964744;28;20051;-52
2023/06/29 06:37:21;;;;;;;31.33;23.80;;;20.10;99.90;;;;;;4963409;28;20041;-54
2023/06/29 06:39:47;;;;;;;30.48;23.58;;;20.20;99.90;;;;;;4964481;28;20047;-54
2023/06/29 06:42:12;;;;;;;35.92;25.85;;;20.30;99.90;;;;;;4964621;28;20121;-56
2023/06/29 06:44:51;;;;;;;33.17;23.50;;;20.50;99.90;;;;;;4964160;28;20058;-55
2023/06/29 06:47:17;;;;;;;33.15;24.38;;;20.60;99.90;;;;;;4964421;28;20086;-56
2023/06/29 06:49:42;;;;;;;34.05;24.45;;;20.60;99.90;;;;;;4964535;28;20038;-55
2023/06/29 06:52:08;;;;;;;32.15;24.70;;;20.70;99.90;;;;;;4964862;28;20039;-56
2023/06/29 06:54:34;;;;;;;32.95;24.63;;;20.60;99.90;;;;;;4963945;28;20106;-56
2023/06/29 06:56:59;;;;;;;29.17;23.55;;;20.60;99.90;;;;;;4964441;28;20490;-52
2023/06/29 06:59:25;;;;;;;34.40;24.00;;;20.60;99.90;;;;;;4963997;28;20098;-56
2023/06/29 07:01:50;;;;;;;31.80;23.55;;;20.60;99.90;;;;;;4964376;28;20042;-55
2023/06/29 07:04:16;;;;;;;32.00;23.38;;;20.60;99.90;;;;;;4964189;28;20323;-56
2023/06/29 07:06:42;;;;;;;32.70;23.67;;;20.70;99.90;;;;;;4964115;28;20058;-56
2023/06/29 07:09:07;;;;;;;32.80;24.58;;;20.70;99.90;;;;;;4964401;28;20046;-55
2023/06/29 07:11:35;;;;;;;32.33;24.40;;;20.70;99.90;;;;;;4963214;28;20101;-54
2023/06/29 07:14:01;;;;;;;31.95;24.33;;;20.70;99.90;;;;;;4963383;28;20050;-55
2023/06/29 07:16:27;;;;;;;29.77;23.27;;;20.70;99.90;;;;;;4964233;28;20417;-56
2023/06/29 07:19:08;;;;;;;39.22;24.77;;;20.70;99.90;;;;;;4963761;28;20097;-54
2023/06/29 07:21:34;;;;;;;31.95;22.80;;;20.80;99.90;;;;;;4963874;28;20085;-53
2023/06/29 07:23:59;;;;;;;34.50;23.17;;;20.80;99.90;;;;;;4963755;28;20074;-54
2023/06/29 07:26:26;;;;;;;31.40;23.38;;;20.80;99.90;;;;;;4962938;28;20453;-54
2023/06/29 07:28:52;;;;;;;30.17;22.27;;;20.80;99.90;;;;;;4963285;28;20121;-54
2023/06/29 07:31:18;;;;;;;33.17;23.27;;;20.70;99.90;;;;;;4963830;28;20478;-55
2023/06/29 07:33:43;;;;;;;29.67;22.67;;;20.70;99.90;;;;;;4963920;28;20097;-54
2023/06/29 07:36:09;;;;;;;30.90;23.55;;;20.80;99.90;;;;;;4963684;28;20038;-54
2023/06/29 07:38:35;;;;;;;29.70;22.00;;;20.80;99.90;;;;;;4964085;28;20536;-54
2023/06/29 07:41:03;;;;;;;31.10;23.10;;;20.80;99.90;;;;;;4963969;28;20053;-53
2023/06/29 07:43:28;;;;;;;30.60;24.17;;;20.70;99.90;;;;;;4962278;28;20121;-53
2023/06/29 07:45:55;;;;;;;30.92;23.40;;;20.50;99.90;;;;;;4963143;28;20488;-53
2023/06/29 07:48:21;;;;;;;30.33;22.80;;;20.60;99.90;;;;;;4963633;28;20109;-56
2023/06/29 07:50:47;;;;;;;32.90;23.83;;;20.50;99.90;;;;;;4963825;28;20240;-55
2023/06/29 07:53:12;;;;;;;29.85;23.27;;;20.50;99.90;;;;;;4963708;28;20105;-54
2023/06/29 07:55:38;;;;;;;33.75;23.77;;;20.50;99.90;;;;;;4963301;28;20517;-54
2023/06/29 07:58:03;;;;;;;30.30;23.17;;;20.40;99.90;;;;;;4963255;28;20051;-52
2023/06/29 08:00:29;;;;;;;32.10;23.15;;;20.50;99.90;;;;;;4961649;28;20509;-53
2023/06/29 08:02:55;;;;;;;29.80;23.02;;;20.50;99.90;;;;;;4963487;28;20066;-54
2023/06/29 08:05:22;;;;;;;35.90;24.30;;;20.50;99.90;;;;;;4963101;28;20476;-55
2023/06/29 08:07:49;;;;;;;31.38;24.70;;;20.50;99.90;;;;;;4965144;28;20394;-54
2023/06/29 08:10:15;;;;;;;33.47;24.40;;;20.50;99.90;;;;;;4965216;28;20475;-54
2023/06/29 08:12:41;;;;;;;35.10;23.20;;;20.50;99.90;;;;;;4965366;28;20082;-54
2023/06/29 08:15:08;;;;;;;30.98;24.05;;;20.60;99.90;;;;;;4962379;28;20161;-54
2023/06/29 08:17:35;;;;;;;33.40;24.77;;;20.50;99.90;;;;;;4959286;28;20049;-56
2023/06/29 08:20:01;;;;;;;30.10;23.70;;;20.50;99.90;;;;;;4946847;28;20115;-52
2023/06/29 08:22:27;;;;;;;34.47;25.20;;;20.50;99.90;;;;;;4943456;28;20080;-54
2023/06/29 08:24:52;;;;;;;31.38;24.63;;;20.60;99.90;;;;;;4943238;28;20126;-53
2023/06/29 08:27:19;;;;;;;31.90;23.70;;;20.60;99.90;;;;;;4943645;28;20397;-56
2023/06/29 08:29:45;;;;;;;32.63;23.90;;;20.60;99.90;;;;;;4960837;28;20501;-54
2023/06/29 08:32:10;;;;;;;32.63;24.00;;;20.70;99.90;;;;;;4963131;28;20117;-55
2023/06/29 08:34:36;;;;;;;30.48;22.60;;;20.80;99.90;;;;;;4961770;28;20051;-52
2023/06/29 08:37:02;;;;;;;31.85;24.60;;;20.80;99.90;;;;;;4962647;28;20406;-54
2023/06/29 08:39:27;;;;;;;30.77;23.98;;;20.90;99.90;;;;;;4962560;28;20042;-56
2023/06/29 08:41:53;;;;;;;35.30;23.83;;;21.00;99.90;;;;;;4961821;28;20607;-56
2023/06/29 08:44:19;;;;;;;35.30;24.63;;;21.10;99.90;;;;;;4961659;28;20053;-56
2023/06/29 08:46:47;;;;;;;31.25;23.63;;;21.30;99.90;;;;;;4962804;28;20093;-55
2023/06/29 08:49:15;;;;;;;33.45;23.75;;;21.40;99.90;;;;;;4965468;28;20101;-55
2023/06/29 08:51:45;;;;;;;32.25;24.52;;;21.50;99.90;;;;;;4964622;28;20078;-56
2023/06/29 08:54:12;;;;;;;32.60;23.60;;;21.50;99.90;;;;;;4964918;28;20055;-56
2023/06/29 08:56:38;;;;;;;35.20;25.70;;;21.40;99.90;;;;;;4961049;28;20046;-56
2023/06/29 08:59:04;;;;;;;32.80;24.50;;;21.50;99.90;;;;;;4954659;28;20448;-53
2023/06/29 09:01:31;;;;;;;37.03;25.02;;;21.40;99.90;;;;;;4962291;28;20049;-55
2023/06/29 09:03:57;;;;;;;32.35;25.50;;;21.30;99.90;;;;;;4953369;28;20093;-56
2023/06/29 09:06:23;;;;;;;31.38;23.85;;;21.40;99.90;;;;;;4945632;28;20043;-55
2023/06/29 09:08:49;;;;;;;37.63;26.15;;;21.30;99.90;;;;;;4943228;28;20098;-54
2023/06/29 09:11:15;;;;;;;36.55;26.67;;;21.30;99.90;;;;;;4943181;28;20323;-53
2023/06/29 09:13:42;;;;;;;35.33;27.63;;;21.30;99.90;;;;;;4942258;28;20062;-54
2023/06/29 09:16:08;;;;;;;37.25;27.73;;;21.20;99.90;;;;;;4942856;28;20146;-54
2023/06/29 09:18:36;;;;;;;37.72;27.20;;;21.10;99.90;;;;;;4943025;28;20087;-55
2023/06/29 09:21:03;;;;;;;37.63;27.73;;;21.10;99.90;;;;;;4942879;28;20071;-54
2023/06/29 09:23:29;;;;;;;35.13;26.65;;;21.10;99.90;;;;;;4949119;28;20046;-54
2023/06/29 09:25:56;;;;;;;40.60;27.70;;;21.20;99.90;;;;;;4960185;28;20043;-56
2023/06/29 09:28:21;;;;;;;41.67;28.70;;;21.20;99.90;;;;;;4960940;28;20081;-55
2023/06/29 09:30:49;;;;;;;38.83;28.50;;;21.40;99.90;;;;;;4961479;28;20126;-54
2023/06/29 09:33:15;;;;;;;38.97;28.77;;;21.40;99.90;;;;;;4961134;28;20706;-54
2023/06/29 09:35:51;;;;;;;36.33;27.77;;;21.60;99.90;;;;;;4962402;28;20043;-56
2023/06/29 09:38:17;;;;;;;38.22;29.73;;;21.70;99.90;;;;;;4960915;28;20051;-54
2023/06/29 09:40:53;;;;;;;39.08;28.00;;;21.70;99.90;;;;;;4962274;28;20054;-54
2023/06/29 09:43:24;;;;;;;40.58;28.42;;;21.80;99.90;;;;;;4961614;28;20050;-56
2023/06/29 09:45:52;;;;;;;38.97;30.55;;;21.80;99.90;;;;;;4962139;28;20054;-56
2023/06/29 09:48:21;;;;;;;38.92;29.52;;;21.90;99.90;;;;;;4966184;28;20042;-57
2023/06/29 09:50:49;;;;;;;41.92;30.20;;;21.90;99.90;;;;;;4965629;28;20363;-55
2023/06/29 09:53:15;;;;;;;38.78;27.58;;;21.90;99.90;;;;;;4965364;28;20390;-55
2023/06/29 09:55:43;;;;;;;41.00;29.30;;;21.90;99.90;;;;;;4964481;28;20047;-56
2023/06/29 09:58:10;;;;;;;41.70;29.70;;;21.90;99.90;;;;;;4963734;28;20121;-55
2023/06/29 10:00:36;;;;;;;37.83;29.35;;;21.90;99.90;;;;;;4965107;28;20110;-54
2023/06/29 10:03:01;;;;;;;41.28;30.25;;;21.90;99.90;;;;;;4965469;28;20494;-56
2023/06/29 10:05:30;;;;;;;43.53;29.48;;;22.00;99.90;;;;;;4965488;28;20041;-55
2023/06/29 10:07:57;;;;;;;38.53;28.88;;;21.90;99.90;;;;;;4959488;28;20109;-54
2023/06/29 10:10:25;;;;;;;36.60;28.30;;;21.90;99.90;;;;;;4963961;28;20612;-55
2023/06/29 10:12:55;;;;;;;39.28;27.17;;;22.00;99.90;;;;;;4965341;28;20054;-56
2023/06/29 10:15:23;;;;;;;35.83;27.70;;;22.10;99.90;;;;;;4964349;28;20049;-56
2023/06/29 10:17:55;;;;;;;37.85;26.90;;;22.10;99.90;;;;;;4954756;28;20051;-56
2023/06/29 10:20:24;;;;;;;37.47;26.77;;;22.20;99.90;;;;;;4946245;28;20602;-55
2023/06/29 10:22:50;;;;;;;32.33;26.20;;;22.30;99.90;;;;;;4944910;29;20273;-56
2023/06/29 10:25:20;;;;;;;33.63;24.60;;;22.50;99.90;;;;;;4945397;28;20043;-55
2023/06/29 10:27:47;;;;;;;30.25;24.08;;;22.60;99.90;;;;;;4945480;28;20111;-53
2023/06/29 10:30:21;;;;;;;33.95;25.10;;;22.70;99.90;;;;;;4944997;28;20051;-56
2023/06/29 10:32:50;;;;;;;35.60;25.25;;;22.70;99.90;;;;;;4945186;28;20529;-53
2023/06/29 10:35:17;;;;;;;33.95;24.85;;;22.60;99.90;;;;;;4945701;28;20065;-55
2023/06/29 10:37:48;;;;;;;34.10;24.73;;;22.50;99.90;;;;;;4945636;28;20043;-56
2023/06/29 10:40:18;;;;;;;33.38;24.33;;;22.50;99.90;;;;;;4945583;28;20152;-55
2023/06/29 10:42:49;;;;;;;35.05;24.90;;;22.40;99.90;;;;;;4945531;28;20141;-55
2023/06/29 10:45:21;;;;;;;33.70;24.27;;;22.40;99.90;;;;;;4944365;28;20537;-54
2023/06/29 10:47:56;;;;;;;31.90;24.85;;;22.40;99.90;;;;;;4946146;28;20134;-54
2023/06/29 10:50:37;;;;;;;33.13;24.13;;;22.50;99.90;;;;;;4964162;28;20043;-55
2023/06/29 10:53:05;;;;;;;31.25;23.58;;;22.50;99.90;;;;;;4960753;28;20548;-55
2023/06/29 10:55:44;;;;;;;30.58;22.60;;;22.50;99.90;;;;;;4963637;28;20035;-56
2023/06/29 10:58:14;;;;;;;31.98;23.25;;;22.40;99.90;;;;;;4961741;28;20211;-56
2023/06/29 11:00:40;;;;;;;30.08;23.48;;;22.40;99.90;;;;;;4963302;28;20058;-57
2023/06/29 11:03:11;;;;;;;34.85;25.52;;;22.30;99.90;;;;;;4964167;28;20443;-54
2023/06/29 11:05:37;;;;;;;34.20;25.65;;;22.30;99.90;;;;;;4964234;28;20125;-56
2023/06/29 11:08:06;;;;;;;32.92;25.65;;;22.10;99.90;;;;;;4964267;28;20113;-56
2023/06/29 11:10:31;;;;;;;35.92;25.80;;;21.90;99.90;;;;;;4963837;28;20130;-54
2023/06/29 11:12:58;;;;;;;34.95;25.33;;;21.80;99.90;;;;;;4962624;28;20059;-56
2023/06/29 11:15:26;;;;;;;33.85;24.88;;;21.70;99.90;;;;;;4964624;28;20043;-56
2023/06/29 11:17:52;;;;;;;35.40;26.02;;;21.50;99.90;;;;;;4964451;28;20046;-54
2023/06/29 11:20:20;;;;;;;35.20;26.88;;;21.50;99.90;;;;;;4963290;28;20042;-52
2023/06/29 11:22:47;;;;;;;35.05;27.67;;;21.40;99.90;;;;;;4963758;28;20050;-53
2023/06/29 11:25:15;;;;;;;35.67;27.95;;;21.40;99.90;;;;;;4964117;28;20046;-55
2023/06/29 11:27:41;;;;;;;35.88;25.42;;;21.40;99.90;;;;;;4962130;28;20063;-54
2023/06/29 11:30:10;;;;;;;28.58;22.40;;;21.50;99.90;;;;;;4963226;28;20043;-57
2023/06/29 11:32:42;;;;;;;29.05;22.83;;;21.50;99.90;;;;;;4963820;28;20341;-56
2023/06/29 11:35:12;;;;;;;28.60;22.35;;;21.50;99.90;;;;;;4963637;28;20248;-56
2023/06/29 11:37:39;;;;;;;31.38;22.33;;;21.50;99.90;;;;;;4963927;28;20149;-52
2023/06/29 11:40:15;;;;;;;28.63;22.80;;;21.50;99.90;;;;;;4963700;28;20523;-54
2023/06/29 11:42:41;;;;;;;30.58;22.60;;;21.50;99.90;;;;;;4962446;28;20516;-55
2023/06/29 11:45:08;;;;;;;32.25;23.85;;;21.50;99.90;;;;;;4963532;28;20049;-54
2023/06/29 11:47:34;;;;;;;32.15;23.00;;;21.50;99.90;;;;;;4963897;28;20513;-53
2023/06/29 11:50:02;;;;;;;29.70;22.17;;;21.50;99.90;;;;;;4963736;28;20043;-55
2023/06/29 11:52:32;;;;;;;32.25;24.15;;;21.40;99.90;;;;;;4962848;28;20135;-55
2023/06/29 11:55:03;;;;;;;28.83;22.58;;;21.50;99.90;;;;;;4963982;28;20405;-55
2023/06/29 11:57:32;;;;;;;33.50;23.88;;;21.50;99.90;;;;;;4963394;28;20505;-55
2023/06/29 11:59:58;;;;;;;32.45;24.73;;;21.50;99.90;;;;;;4962733;28;20245;-56
2023/06/29 12:02:23;;;;;;;32.55;24.90;;;21.50;99.90;;;;;;4962408;28;20047;-55
2023/06/29 12:05:03;;;;;;;33.85;23.77;;;21.50;99.90;;;;;;4961894;28;20509;-54
2023/06/29 12:07:35;;;;;;;32.10;24.15;;;21.60;99.90;;;;;;4959829;28;20047;-54
2023/06/29 12:10:06;;;;;;;33.35;26.02;;;21.70;99.90;;;;;;4941791;28;20166;-56
2023/06/29 12:12:39;;;;;;;35.40;27.30;;;21.80;99.90;;;;;;4956532;28;20058;-54
2023/06/29 12:15:31;;;;;;;35.25;26.85;;;21.80;99.90;;;;;;4951921;28;20035;-55
2023/06/29 12:18:15;;;;;;;34.42;26.80;;;22.00;99.90;;;;;;4941963;29;20122;-56
2023/06/29 12:20:43;;;;;;;34.37;26.30;;;21.80;99.90;;;;;;4943652;28;20050;-55
2023/06/29 12:23:11;;;;;;;35.63;26.77;;;21.90;99.90;;;;;;4942788;28;20620;-55
2023/06/29 12:25:49;;;;;;;36.08;26.95;;;22.00;99.90;;;;;;4943499;28;20039;-56
2023/06/29 12:28:16;;;;;;;31.30;24.42;;;22.10;99.90;;;;;;4942822;28;20039;-56